sensor_id;sensor_type;location;lat;lon;timestamp;temperature;humidity
21282;DHT22;10800;53.096;18.328;2023-05-02T00:03:03;9.70;87.50
21282;DHT22;10800;53.096;18.328;2023-05-02T00:08:10;9.70;87.90
21282;DHT22;10800;53.096;18.328;2023-05-02T00:13:16;9.70;88.90
21282;DHT22;10800;53.096;18.328;2023-05-02T00:18:21;9.70;88.30
21282;DHT22;10800;53.096;18.328;2023-05-02T00:23:27;9.80;87.00
21282;DHT22;10800;53.096;18.328;2023-05-02T00:28:32;9.90;87.10
21282;DHT22;10800;53.096;18.328;2023-05-02T00:33:37;9.90;87.60
21282;DHT22;10800;53.096;18.328;2023-05-02T00:38:43;9.90;87.90
21282;DHT22;10800;53.096;18.328;2023-05-02T00:43:57;9.90;88.50
21282;DHT22;10800;53.096;18.328;2023-05-02T00:49:02;9.90;89.60
21282;DHT22;10800;53.096;18.328;2023-05-02T00:54:08;9.90;91.20
21282;DHT22;10800;53.096;18.328;2023-05-02T00:59:14;9.80;90.90
21282;DHT22;10800;53.096;18.328;2023-05-02T01:04:29;9.80;91.40
21282;DHT22;10800;53.096;18.328;2023-05-02T01:10:37;9.70;91.20
21282;DHT22;10800;53.096;18.328;2023-05-02T01:15:04;9.60;91.20
21282;DHT22;10800;53.096;18.328;2023-05-02T01:20:12;9.40;91.30
21282;DHT22;10800;53.096;18.328;2023-05-02T01:25:35;9.40;91.80
21282;DHT22;10800;53.096;18.328;2023-05-02T01:30:37;9.40;91.80
21282;DHT22;10800;53.096;18.328;2023-05-02T01:35:45;9.40;92.50
21282;DHT22;10800;53.096;18.328;2023-05-02T01:40:52;9.30;93.10
21282;DHT22;10800;53.096;18.328;2023-05-02T01:45:58;9.30;93.50
21282;DHT22;10800;53.096;18.328;2023-05-02T01:51:05;9.20;94.20
21282;DHT22;10800;53.096;18.328;2023-05-02T01:56:12;9.30;94.50
21282;DHT22;10800;53.096;18.328;2023-05-02T02:01:19;9.30;95.80
21282;DHT22;10800;53.096;18.328;2023-05-02T02:06:25;9.20;95.90
21282;DHT22;10800;53.096;18.328;2023-05-02T02:11:42;9.30;96.00
21282;DHT22;10800;53.096;18.328;2023-05-02T02:16:47;9.20;96.40
21282;DHT22;10800;53.096;18.328;2023-05-02T02:21:55;9.30;96.40
21282;DHT22;10800;53.096;18.328;2023-05-02T02:27:02;9.30;96.80
21282;DHT22;10800;53.096;18.328;2023-05-02T02:32:07;9.30;97.10
21282;DHT22;10800;53.096;18.328;2023-05-02T02:37:23;9.30;97.20
21282;DHT22;10800;53.096;18.328;2023-05-02T02:53:45;9.20;98.00
21282;DHT22;10800;53.096;18.328;2023-05-02T02:59:37;9.00;98.30
21282;DHT22;10800;53.096;18.328;2023-05-02T03:04:15;9.00;98.40
21282;DHT22;10800;53.096;18.328;2023-05-02T03:09:22;9.00;99.60
21282;DHT22;10800;53.096;18.328;2023-05-02T03:14:29;8.90;99.30
21282;DHT22;10800;53.096;18.328;2023-05-02T03:19:35;8.90;99.90
21282;DHT22;10800;53.096;18.328;2023-05-02T03:24:40;9.00;99.90
21282;DHT22;10800;53.096;18.328;2023-05-02T03:29:45;8.90;99.90
21282;DHT22;10800;53.096;18.328;2023-05-02T03:34:51;9.00;99.90
21282;DHT22;10800;53.096;18.328;2023-05-02T03:39:58;8.90;99.90
21282;DHT22;10800;53.096;18.328;2023-05-02T03:45:04;8.90;99.90
21282;DHT22;10800;53.096;18.328;2023-05-02T03:50:10;9.00;99.90
21282;DHT22;10800;53.096;18.328;2023-05-02T03:55:15;9.10;99.90
21282;DHT22;10800;53.096;18.328;2023-05-02T04:00:21;9.20;99.90
21282;DHT22;10800;53.096;18.328;2023-05-02T04:05:26;9.20;99.90
21282;DHT22;10800;53.096;18.328;2023-05-02T04:10:32;9.30;99.90
21282;DHT22;10800;53.096;18.328;2023-05-02T04:15:37;9.30;99.90
21282;DHT22;10800;53.096;18.328;2023-05-02T04:20:43;9.40;99.90
21282;DHT22;10800;53.096;18.328;2023-05-02T04:25:52;9.50;99.90
21282;DHT22;10800;53.096;18.328;2023-05-02T04:30:58;9.50;99.90
21282;DHT22;10800;53.096;18.328;2023-05-02T04:36:03;9.50;99.90
21282;DHT22;10800;53.096;18.328;2023-05-02T04:41:09;9.60;99.90
21282;DHT22;10800;53.096;18.328;2023-05-02T04:46:15;9.70;99.90
21282;DHT22;10800;53.096;18.328;2023-05-02T04:51:21;9.80;99.90
21282;DHT22;10800;53.096;18.328;2023-05-02T04:56:26;10.00;99.90
21282;DHT22;10800;53.096;18.328;2023-05-02T05:01:31;10.10;99.90
21282;DHT22;10800;53.096;18.328;2023-05-02T05:06:37;10.20;99.90
21282;DHT22;10800;53.096;18.328;2023-05-02T05:11:42;10.30;99.90
21282;DHT22;10800;53.096;18.328;2023-05-02T05:16:49;10.40;99.90
21282;DHT22;10800;53.096;18.328;2023-05-02T05:21:54;10.50;99.90
21282;DHT22;10800;53.096;18.328;2023-05-02T05:27:00;10.60;99.90
21282;DHT22;10800;53.096;18.328;2023-05-02T05:32:05;10.60;99.90
21282;DHT22;10800;53.096;18.328;2023-05-02T05:37:10;10.60;99.90
21282;DHT22;10800;53.096;18.328;2023-05-02T05:42:16;10.70;99.90
21282;DHT22;10800;53.096;18.328;2023-05-02T05:47:21;10.80;99.90
21282;DHT22;10800;53.096;18.328;2023-05-02T05:52:27;11.00;99.90
21282;DHT22;10800;53.096;18.328;2023-05-02T05:57:33;11.10;99.90
21282;DHT22;10800;53.096;18.328;2023-05-02T06:02:38;11.20;99.90
21282;DHT22;10800;53.096;18.328;2023-05-02T06:07:43;11.40;99.90
21282;DHT22;10800;53.096;18.328;2023-05-02T06:12:48;11.50;99.90
21282;DHT22;10800;53.096;18.328;2023-05-02T06:17:54;11.60;99.90
21282;DHT22;10800;53.096;18.328;2023-05-02T06:22:59;11.60;99.90
21282;DHT22;10800;53.096;18.328;2023-05-02T06:28:04;11.70;99.90
21282;DHT22;10800;53.096;18.328;2023-05-02T06:33:12;11.80;99.90
21282;DHT22;10800;53.096;18.328;2023-05-02T06:38:26;11.90;99.90
21282;DHT22;10800;53.096;18.328;2023-05-02T06:43:42;12.00;99.90
21282;DHT22;10800;53.096;18.328;2023-05-02T06:48:47;12.10;99.90
21282;DHT22;10800;53.096;18.328;2023-05-02T06:53:52;12.20;99.90
21282;DHT22;10800;53.096;18.328;2023-05-02T06:58:59;12.30;99.90
21282;DHT22;10800;53.096;18.328;2023-05-02T07:04:04;12.40;99.90
21282;DHT22;10800;53.096;18.328;2023-05-02T07:09:10;12.50;99.90
21282;DHT22;10800;53.096;18.328;2023-05-02T07:14:15;12.70;99.90
21282;DHT22;10800;53.096;18.328;2023-05-02T07:19:20;12.80;99.90
21282;DHT22;10800;53.096;18.328;2023-05-02T07:24:25;12.70;99.90
21282;DHT22;10800;53.096;18.328;2023-05-02T07:29:31;12.60;99.90
21282;DHT22;10800;53.096;18.328;2023-05-02T07:34:36;12.60;99.90
21282;DHT22;10800;53.096;18.328;2023-05-02T07:39:41;12.60;99.90
21282;DHT22;10800;53.096;18.328;2023-05-02T07:44:47;12.70;99.90
21282;DHT22;10800;53.096;18.328;2023-05-02T07:49:53;12.90;99.90
21282;DHT22;10800;53.096;18.328;2023-05-02T07:54:59;13.20;99.90
21282;DHT22;10800;53.096;18.328;2023-05-02T08:00:05;13.50;99.90
21282;DHT22;10800;53.096;18.328;2023-05-02T08:05:14;13.80;99.90
21282;DHT22;10800;53.096;18.328;2023-05-02T08:10:20;14.00;99.90
21282;DHT22;10800;53.096;18.328;2023-05-02T08:15:28;14.20;99.90
21282;DHT22;10800;53.096;18.328;2023-05-02T08:20:42;14.80;99.90
21282;DHT22;10800;53.096;18.328;2023-05-02T08:25:50;15.20;99.90
21282;DHT22;10800;53.096;18.328;2023-05-02T08:31:05;15.60;99.90
21282;DHT22;10800;53.096;18.328;2023-05-02T08:36:17;15.90;99.90
21282;DHT22;10800;53.096;18.328;2023-05-02T08:41:35;16.40;99.90
21282;DHT22;10800;53.096;18.328;2023-05-02T08:47:02;17.20;99.10
21282;DHT22;10800;53.096;18.328;2023-05-02T08:52:19;18.30;97.10
21282;DHT22;10800;53.096;18.328;2023-05-02T08:57:36;19.10;93.20
21282;DHT22;10800;53.096;18.328;2023-05-02T09:03:05;19.50;90.80
21282;DHT22;10800;53.096;18.328;2023-05-02T09:08:25;19.60;90.20
21282;DHT22;10800;53.096;18.328;2023-05-02T09:13:40;20.30;89.00
21282;DHT22;10800;53.096;18.328;2023-05-02T09:18:48;20.90;82.50
21282;DHT22;10800;53.096;18.328;2023-05-02T09:29:13;21.60;74.10
21282;DHT22;10800;53.096;18.328;2023-05-02T09:34:20;22.20;67.90
21282;DHT22;10800;53.096;18.328;2023-05-02T09:39:27;22.10;65.50
21282;DHT22;10800;53.096;18.328;2023-05-02T09:44:36;22.20;62.50
21282;DHT22;10800;53.096;18.328;2023-05-02T09:49:44;22.60;61.40
21282;DHT22;10800;53.096;18.328;2023-05-02T09:54:50;22.70;62.40
21282;DHT22;10800;53.096;18.328;2023-05-02T09:59:57;22.10;59.80
21282;DHT22;10800;53.096;18.328;2023-05-02T10:05:03;22.40;60.10
21282;DHT22;10800;53.096;18.328;2023-05-02T10:10:13;22.70;60.60
21282;DHT22;10800;53.096;18.328;2023-05-02T10:15:20;22.70;59.20
21282;DHT22;10800;53.096;18.328;2023-05-02T10:20:33;22.50;58.70
21282;DHT22;10800;53.096;18.328;2023-05-02T10:25:39;22.90;57.10
21282;DHT22;10800;53.096;18.328;2023-05-02T10:30:45;23.80;54.10
21282;DHT22;10800;53.096;18.328;2023-05-02T10:35:51;23.90;52.70
21282;DHT22;10800;53.096;18.328;2023-05-02T10:41:00;23.70;51.90
21282;DHT22;10800;53.096;18.328;2023-05-02T10:51:30;23.50;49.80
21282;DHT22;10800;53.096;18.328;2023-05-02T10:56:55;23.50;49.30
21282;DHT22;10800;53.096;18.328;2023-05-02T11:01:44;23.20;49.00
21282;DHT22;10800;53.096;18.328;2023-05-02T11:12:05;21.80;51.10
21282;DHT22;10800;53.096;18.328;2023-05-02T11:17:11;21.50;51.30
21282;DHT22;10800;53.096;18.328;2023-05-02T11:37:58;22.70;51.10
21282;DHT22;10800;53.096;18.328;2023-05-02T11:43:12;22.80;49.80
21282;DHT22;10800;53.096;18.328;2023-05-02T11:48:19;22.80;50.80
21282;DHT22;10800;53.096;18.328;2023-05-02T11:53:27;22.30;51.20
21282;DHT22;10800;53.096;18.328;2023-05-02T11:58:33;22.00;52.80
21282;DHT22;10800;53.096;18.328;2023-05-02T12:03:38;21.90;52.90
21282;DHT22;10800;53.096;18.328;2023-05-02T12:08:44;21.60;53.10
21282;DHT22;10800;53.096;18.328;2023-05-02T12:13:49;21.40;52.20
21282;DHT22;10800;53.096;18.328;2023-05-02T12:18:55;20.90;53.60
21282;DHT22;10800;53.096;18.328;2023-05-02T12:24:03;20.80;54.50
21282;DHT22;10800;53.096;18.328;2023-05-02T12:29:09;20.50;54.30
21282;DHT22;10800;53.096;18.328;2023-05-02T12:34:32;20.40;56.60
21282;DHT22;10800;53.096;18.328;2023-05-02T12:39:42;20.30;56.70
21282;DHT22;10800;53.096;18.328;2023-05-02T12:44:49;20.60;56.20
21282;DHT22;10800;53.096;18.328;2023-05-02T12:49:58;20.70;55.30
21282;DHT22;10800;53.096;18.328;2023-05-02T12:55:24;20.40;55.70
21282;DHT22;10800;53.096;18.328;2023-05-02T13:00:33;20.30;55.60
21282;DHT22;10800;53.096;18.328;2023-05-02T13:05:39;20.10;56.50
21282;DHT22;10800;53.096;18.328;2023-05-02T13:10:44;19.80;57.20
21282;DHT22;10800;53.096;18.328;2023-05-02T13:15:49;19.70;58.90
21282;DHT22;10800;53.096;18.328;2023-05-02T13:20:54;19.40;63.70
21282;DHT22;10800;53.096;18.328;2023-05-02T13:26:00;19.10;65.50
21282;DHT22;10800;53.096;18.328;2023-05-02T13:31:05;19.00;66.20
21282;DHT22;10800;53.096;18.328;2023-05-02T13:36:10;19.30;67.40
21282;DHT22;10800;53.096;18.328;2023-05-02T13:41:15;19.50;67.20
21282;DHT22;10800;53.096;18.328;2023-05-02T13:46:22;19.40;65.90
21282;DHT22;10800;53.096;18.328;2023-05-02T13:51:27;19.20;66.80
21282;DHT22;10800;53.096;18.328;2023-05-02T13:56:35;19.20;67.60
21282;DHT22;10800;53.096;18.328;2023-05-02T14:01:49;19.20;68.40
21282;DHT22;10800;53.096;18.328;2023-05-02T14:06:56;19.30;69.20
21282;DHT22;10800;53.096;18.328;2023-05-02T14:12:02;19.40;68.10
21282;DHT22;10800;53.096;18.328;2023-05-02T14:17:17;19.10;69.70
21282;DHT22;10800;53.096;18.328;2023-05-02T14:22:25;18.90;71.80
21282;DHT22;10800;53.096;18.328;2023-05-02T14:27:35;18.80;70.60
21282;DHT22;10800;53.096;18.328;2023-05-02T14:32:47;18.30;71.70
21282;DHT22;10800;53.096;18.328;2023-05-02T14:38:20;18.20;71.40
21282;DHT22;10800;53.096;18.328;2023-05-02T14:43:32;18.50;71.80
21282;DHT22;10800;53.096;18.328;2023-05-02T14:48:44;18.50;71.80
21282;DHT22;10800;53.096;18.328;2023-05-02T14:53:50;18.30;70.00
21282;DHT22;10800;53.096;18.328;2023-05-02T14:58:57;18.20;70.70
21282;DHT22;10800;53.096;18.328;2023-05-02T15:04:03;18.10;70.20
21282;DHT22;10800;53.096;18.328;2023-05-02T15:09:10;17.80;70.60
21282;DHT22;10800;53.096;18.328;2023-05-02T15:14:17;17.70;72.30
21282;DHT22;10800;53.096;18.328;2023-05-02T15:19:31;17.80;73.60
21282;DHT22;10800;53.096;18.328;2023-05-02T15:24:37;17.30;74.40
21282;DHT22;10800;53.096;18.328;2023-05-02T15:29:43;17.10;75.30
21282;DHT22;10800;53.096;18.328;2023-05-02T15:34:48;17.00;75.30
21282;DHT22;10800;53.096;18.328;2023-05-02T15:39:53;17.00;75.70
21282;DHT22;10800;53.096;18.328;2023-05-02T15:44:59;17.00;75.80
21282;DHT22;10800;53.096;18.328;2023-05-02T15:50:05;17.10;75.50
21282;DHT22;10800;53.096;18.328;2023-05-02T15:55:12;17.00;74.70
21282;DHT22;10800;53.096;18.328;2023-05-02T16:00:17;16.90;75.80
21282;DHT22;10800;53.096;18.328;2023-05-02T16:05:23;16.70;76.30
21282;DHT22;10800;53.096;18.328;2023-05-02T16:10:32;16.70;74.90
21282;DHT22;10800;53.096;18.328;2023-05-02T16:15:57;16.40;75.20
21282;DHT22;10800;53.096;18.328;2023-05-02T16:21:11;16.20;75.40
21282;DHT22;10800;53.096;18.328;2023-05-02T16:26:17;16.10;74.80
21282;DHT22;10800;53.096;18.328;2023-05-02T16:31:25;16.30;74.50
21282;DHT22;10800;53.096;18.328;2023-05-02T16:36:35;16.30;73.30
21282;DHT22;10800;53.096;18.328;2023-05-02T16:41:44;16.40;73.30
21282;DHT22;10800;53.096;18.328;2023-05-02T16:46:55;16.30;73.70
21282;DHT22;10800;53.096;18.328;2023-05-02T16:52:12;16.20;75.10
21282;DHT22;10800;53.096;18.328;2023-05-02T16:57:23;16.10;75.00
21282;DHT22;10800;53.096;18.328;2023-05-02T17:02:35;16.00;76.10
21282;DHT22;10800;53.096;18.328;2023-05-02T17:07:47;16.00;76.60
21282;DHT22;10800;53.096;18.328;2023-05-02T17:12:59;15.80;76.50
21282;DHT22;10800;53.096;18.328;2023-05-02T17:18:16;15.60;75.60
21282;DHT22;10800;53.096;18.328;2023-05-02T17:23:26;15.40;76.00
21282;DHT22;10800;53.096;18.328;2023-05-02T17:28:32;15.20;76.10
21282;DHT22;10800;53.096;18.328;2023-05-02T17:33:57;15.00;77.20
21282;DHT22;10800;53.096;18.328;2023-05-02T17:39:09;14.80;77.10
21282;DHT22;10800;53.096;18.328;2023-05-02T17:44:17;14.50;77.00
21282;DHT22;10800;53.096;18.328;2023-05-02T17:49:25;14.40;77.50
21282;DHT22;10800;53.096;18.328;2023-05-02T17:54:30;14.20;78.60
21282;DHT22;10800;53.096;18.328;2023-05-02T17:59:37;14.00;78.50
21282;DHT22;10800;53.096;18.328;2023-05-02T18:04:48;13.80;78.70
21282;DHT22;10800;53.096;18.328;2023-05-02T18:09:53;13.70;78.80
21282;DHT22;10800;53.096;18.328;2023-05-02T18:14:59;13.50;78.90
21282;DHT22;10800;53.096;18.328;2023-05-02T18:20:10;13.40;79.80
21282;DHT22;10800;53.096;18.328;2023-05-02T18:25:17;13.20;79.60
21282;DHT22;10800;53.096;18.328;2023-05-02T18:30:23;13.10;79.60
21282;DHT22;10800;53.096;18.328;2023-05-02T18:35:35;12.90;78.00
21282;DHT22;10800;53.096;18.328;2023-05-02T18:40:43;12.80;79.00
21282;DHT22;10800;53.096;18.328;2023-05-02T18:45:51;12.70;78.90
21282;DHT22;10800;53.096;18.328;2023-05-02T18:50:58;12.60;79.20
21282;DHT22;10800;53.096;18.328;2023-05-02T18:56:12;12.40;79.70
21282;DHT22;10800;53.096;18.328;2023-05-02T19:01:17;12.20;79.70
21282;DHT22;10800;53.096;18.328;2023-05-02T19:06:25;12.20;81.00
21282;DHT22;10800;53.096;18.328;2023-05-02T19:11:31;12.00;80.80
21282;DHT22;10800;53.096;18.328;2023-05-02T19:16:38;11.90;81.40
21282;DHT22;10800;53.096;18.328;2023-05-02T19:21:44;11.80;81.80
21282;DHT22;10800;53.096;18.328;2023-05-02T19:26:51;11.70;81.80
21282;DHT22;10800;53.096;18.328;2023-05-02T19:31:57;11.50;81.40
21282;DHT22;10800;53.096;18.328;2023-05-02T19:37:03;11.40;82.10
21282;DHT22;10800;53.096;18.328;2023-05-02T19:42:08;11.30;82.20
21282;DHT22;10800;53.096;18.328;2023-05-02T19:47:14;11.20;83.50
21282;DHT22;10800;53.096;18.328;2023-05-02T19:52:19;11.20;83.60
21282;DHT22;10800;53.096;18.328;2023-05-02T19:57:27;11.30;83.80
21282;DHT22;10800;53.096;18.328;2023-05-02T20:02:32;11.30;83.50
21282;DHT22;10800;53.096;18.328;2023-05-02T20:07:39;11.30;82.30
21282;DHT22;10800;53.096;18.328;2023-05-02T20:12:45;11.30;83.90
21282;DHT22;10800;53.096;18.328;2023-05-02T20:17:55;11.30;85.90
21282;DHT22;10800;53.096;18.328;2023-05-02T20:23:04;11.20;86.80
21282;DHT22;10800;53.096;18.328;2023-05-02T20:28:08;11.20;85.60
21282;DHT22;10800;53.096;18.328;2023-05-02T20:33:13;11.20;86.90
21282;DHT22;10800;53.096;18.328;2023-05-02T20:38:23;11.20;87.40
21282;DHT22;10800;53.096;18.328;2023-05-02T20:43:29;11.10;84.90
21282;DHT22;10800;53.096;18.328;2023-05-02T20:48:37;11.20;84.10
21282;DHT22;10800;53.096;18.328;2023-05-02T20:53:43;11.20;84.30
21282;DHT22;10800;53.096;18.328;2023-05-02T20:58:48;11.10;84.10
21282;DHT22;10800;53.096;18.328;2023-05-02T21:03:53;11.10;84.00
21282;DHT22;10800;53.096;18.328;2023-05-02T21:09:00;11.10;84.00
21282;DHT22;10800;53.096;18.328;2023-05-02T21:14:07;11.10;84.40
21282;DHT22;10800;53.096;18.328;2023-05-02T21:19:13;11.10;83.80
21282;DHT22;10800;53.096;18.328;2023-05-02T21:24:18;11.10;84.60
21282;DHT22;10800;53.096;18.328;2023-05-02T21:29:24;11.00;84.80
21282;DHT22;10800;53.096;18.328;2023-05-02T21:34:29;11.00;85.60
21282;DHT22;10800;53.096;18.328;2023-05-02T21:39:34;11.00;83.50
21282;DHT22;10800;53.096;18.328;2023-05-02T21:44:40;10.90;83.30
21282;DHT22;10800;53.096;18.328;2023-05-02T21:49:45;10.80;83.40
21282;DHT22;10800;53.096;18.328;2023-05-02T21:54:50;10.80;82.70
21282;DHT22;10800;53.096;18.328;2023-05-02T21:59:55;10.80;84.20
21282;DHT22;10800;53.096;18.328;2023-05-02T22:05:00;10.80;84.50
21282;DHT22;10800;53.096;18.328;2023-05-02T22:10:08;10.60;80.20
21282;DHT22;10800;53.096;18.328;2023-05-02T22:15:15;10.60;79.80
21282;DHT22;10800;53.096;18.328;2023-05-02T22:20:21;10.50;78.60
21282;DHT22;10800;53.096;18.328;2023-05-02T22:25:27;10.50;78.50
21282;DHT22;10800;53.096;18.328;2023-05-02T22:30:33;10.40;78.20
21282;DHT22;10800;53.096;18.328;2023-05-02T22:35:38;10.30;78.30
21282;DHT22;10800;53.096;18.328;2023-05-02T22:40:44;10.20;78.20
21282;DHT22;10800;53.096;18.328;2023-05-02T22:45:49;10.10;78.00
21282;DHT22;10800;53.096;18.328;2023-05-02T22:50:55;10.10;77.70
21282;DHT22;10800;53.096;18.328;2023-05-02T22:56:00;10.00;78.00
21282;DHT22;10800;53.096;18.328;2023-05-02T23:01:06;10.00;78.40
21282;DHT22;10800;53.096;18.328;2023-05-02T23:06:12;10.00;79.00
21282;DHT22;10800;53.096;18.328;2023-05-02T23:11:17;10.00;78.80
21282;DHT22;10800;53.096;18.328;2023-05-02T23:16:24;9.90;79.30
21282;DHT22;10800;53.096;18.328;2023-05-02T23:21:29;9.80;78.60
21282;DHT22;10800;53.096;18.328;2023-05-02T23:26:34;9.70;79.00
21282;DHT22;10800;53.096;18.328;2023-05-02T23:31:40;9.60;80.70
21282;DHT22;10800;53.096;18.328;2023-05-02T23:36:46;9.50;80.50
21282;DHT22;10800;53.096;18.328;2023-05-02T23:41:52;9.40;81.70
21282;DHT22;10800;53.096;18.328;2023-05-02T23:46:58;9.20;81.70
21282;DHT22;10800;53.096;18.328;2023-05-02T23:52:04;9.10;82.00
21282;DHT22;10800;53.096;18.328;2023-05-02T23:57:09;8.90;82.30
